createdAt,value
2022-09-28T00:00:03.250Z,1.92
2022-09-28T00:02:41.934Z,1.73
2022-09-28T00:05:14.940Z,2.22
2022-09-28T00:07:44.974Z,2.28
2022-09-28T00:10:14.655Z,2.00
2022-09-28T00:15:13.874Z,1.60
2022-09-28T00:17:46.069Z,1.67
2022-09-28T00:20:17.985Z,1.58
2022-09-28T00:22:48.209Z,2.42
2022-09-28T00:25:18.135Z,1.70
2022-09-28T00:27:52.529Z,2.28
2022-09-28T00:30:23.648Z,2.30
2022-09-28T00:32:54.542Z,1.88
2022-09-28T00:35:24.785Z,3.03
2022-09-28T00:37:55.380Z,2.33
2022-09-28T00:40:25.148Z,2.05
2022-09-28T00:42:54.975Z,2.20
2022-09-28T00:45:27.489Z,2.03
2022-09-28T00:48:01.440Z,2.40
2022-09-28T00:50:35.418Z,2.78
2022-09-28T00:53:22.965Z,1.98
2022-09-28T00:55:58.961Z,2.22
2022-09-28T00:58:33.336Z,2.35
2022-09-28T01:01:03.748Z,2.45
2022-09-28T01:03:34.936Z,2.10
2022-09-28T01:06:08.988Z,2.72
2022-09-28T01:08:41.220Z,2.40
2022-09-28T01:11:11.159Z,2.50
2022-09-28T01:13:42.786Z,2.90
2022-09-28T01:16:31.040Z,2.60
2022-09-28T01:19:47.760Z,3.15
2022-09-28T01:22:36.089Z,2.63
2022-09-28T01:28:06.876Z,2.20
2022-09-28T01:30:59.150Z,2.35
2022-09-28T01:33:50.305Z,3.30
2022-09-28T01:36:27.628Z,3.00
2022-09-28T01:39:03.401Z,2.60
2022-09-28T01:41:37.828Z,2.88
2022-09-28T01:44:13.054Z,4.57
2022-09-28T01:46:46.880Z,2.75
2022-09-28T01:49:32.561Z,2.50
2022-09-28T01:52:09.616Z,2.63
2022-09-28T01:54:59.582Z,2.25
2022-09-28T01:57:40.629Z,2.30
2022-09-28T02:00:14.854Z,2.40
2022-09-28T02:03:10.470Z,2.63
2022-09-28T02:06:02.288Z,1.90
2022-09-28T02:08:41.723Z,1.85
2022-09-28T02:11:23.292Z,2.17
2022-09-28T02:14:02.771Z,2.38
2022-09-28T02:16:42.222Z,2.42
2022-09-28T02:19:25.150Z,2.20
2022-09-28T02:22:44.147Z,1.77
2022-09-28T02:25:46.773Z,2.13
2022-09-28T02:28:17.966Z,2.20
2022-09-28T02:30:48.172Z,2.20
2022-09-28T02:33:20.713Z,1.95
2022-09-28T02:35:51.032Z,2.10
2022-09-28T02:38:22.477Z,1.83
2022-09-28T02:41:10.695Z,2.00
2022-09-28T02:44:00.144Z,1.90
2022-09-28T02:47:06.167Z,2.13
2022-09-28T02:49:47.715Z,1.60
2022-09-28T02:52:21.307Z,1.90
2022-09-28T02:55:12.227Z,1.52
2022-09-28T02:57:59.473Z,1.67
2022-09-28T03:00:32.603Z,1.80
2022-09-28T03:03:36.345Z,1.55
2022-09-28T03:06:12.775Z,1.42
2022-09-28T03:09:15.056Z,1.80
2022-09-28T03:11:50.108Z,1.60
2022-09-28T03:14:20.820Z,1.63
2022-09-28T03:16:59.372Z,1.67
2022-09-28T03:19:38.252Z,1.40
2022-09-28T03:22:09.144Z,1.50
2022-09-28T03:24:39.287Z,1.52
2022-09-28T03:27:11.285Z,1.70
2022-09-28T03:29:41.869Z,1.73
2022-09-28T03:32:11.807Z,2.03
2022-09-28T03:34:41.811Z,1.50
2022-09-28T03:37:12.154Z,1.88
2022-09-28T03:39:42.578Z,1.63
2022-09-28T03:42:12.281Z,1.55
2022-09-28T03:44:46.581Z,1.48
2022-09-28T03:47:19.028Z,1.50
2022-09-28T03:49:49.711Z,1.88
2022-09-28T03:52:19.594Z,2.28
2022-09-28T03:54:49.768Z,1.50
2022-09-28T03:57:19.603Z,2.00
2022-09-28T03:59:49.390Z,1.70
2022-09-28T04:02:19.094Z,1.80
2022-09-28T04:04:48.848Z,1.80
2022-09-28T04:07:18.573Z,1.70
2022-09-28T04:09:48.823Z,1.60
2022-09-28T04:12:18.518Z,1.60
2022-09-28T04:14:48.460Z,1.70
2022-09-28T04:17:18.233Z,1.75
2022-09-28T04:19:48.726Z,1.40
2022-09-28T04:22:28.095Z,1.73
2022-09-28T04:24:59.090Z,1.83
2022-09-28T04:27:46.784Z,1.77
2022-09-28T04:30:17.717Z,2.05
2022-09-28T04:32:49.005Z,1.92
2022-09-28T04:35:20.130Z,2.00
2022-09-28T04:37:50.145Z,1.30
2022-09-28T04:40:19.991Z,1.70
2022-09-28T04:42:57.364Z,2.05
2022-09-28T04:45:28.616Z,1.83
2022-09-28T04:48:09.003Z,1.73
2022-09-28T04:51:11.273Z,2.03
2022-09-28T04:53:41.329Z,1.77
2022-09-28T04:56:15.854Z,1.85
2022-09-28T04:58:51.774Z,2.10
2022-09-28T05:01:25.273Z,1.80
2022-09-28T05:04:04.663Z,2.35
2022-09-28T05:06:45.132Z,2.55
2022-09-28T05:09:15.829Z,1.75
2022-09-28T05:11:45.956Z,1.50
2022-09-28T05:14:20.927Z,2.00
2022-09-28T05:16:52.195Z,2.22
2022-09-28T05:19:25.049Z,1.90
2022-09-28T05:21:59.158Z,1.40
2022-09-28T05:24:29.207Z,1.73
2022-09-28T05:26:58.985Z,1.92
2022-09-28T05:29:32.061Z,1.75
2022-09-28T05:32:20.864Z,1.42
2022-09-28T05:35:13.962Z,2.08
2022-09-28T05:37:48.646Z,1.80
2022-09-28T05:40:19.009Z,1.45
2022-09-28T05:42:54.295Z,1.50
2022-09-28T05:45:24.432Z,1.50
2022-09-28T05:47:55.048Z,1.67
2022-09-28T05:50:25.884Z,2.08
2022-09-28T05:53:04.870Z,1.88
2022-09-28T05:55:35.473Z,1.75
2022-09-28T05:58:07.879Z,1.60
2022-09-28T06:00:38.125Z,1.85
2022-09-28T06:03:11.826Z,1.88
2022-09-28T06:05:42.450Z,1.80
2022-09-28T06:08:12.714Z,1.70
2022-09-28T06:10:46.951Z,1.70
2022-09-28T06:13:17.556Z,1.88
2022-09-28T06:15:47.825Z,1.77
2022-09-28T06:18:17.862Z,2.78
2022-09-28T06:21:25.865Z,2.00
2022-09-28T06:23:57.395Z,1.95
2022-09-28T06:26:28.145Z,1.58
2022-09-28T06:28:58.734Z,1.85
2022-09-28T06:31:31.241Z,2.13
2022-09-28T06:34:03.179Z,1.80
2022-09-28T06:36:33.303Z,2.05
2022-09-28T06:39:03.295Z,1.98
2022-09-28T06:41:33.378Z,1.85
2022-09-28T06:44:14.055Z,1.88
2022-09-28T06:47:03.377Z,2.10
2022-09-28T06:49:56.372Z,2.22
2022-09-28T06:52:44.363Z,2.20
2022-09-28T06:55:35.593Z,2.17
2022-09-28T06:58:08.333Z,1.98
2022-09-28T07:00:40.328Z,1.73
2022-09-28T07:03:14.557Z,1.80
2022-09-28T07:06:07.387Z,1.80
2022-09-28T07:09:10.021Z,2.10
2022-09-28T07:12:05.947Z,1.80
2022-09-28T07:14:51.234Z,2.10
2022-09-28T07:17:21.626Z,2.50
2022-09-28T07:19:53.774Z,2.70
2022-09-28T07:22:39.485Z,2.20
2022-09-28T07:25:11.609Z,2.10
2022-09-28T07:30:34.698Z,1.92
2022-09-28T07:33:10.831Z,2.17
2022-09-28T07:35:57.910Z,1.77
2022-09-28T07:38:31.997Z,2.63
2022-09-28T07:41:15.218Z,2.42
2022-09-28T07:43:50.964Z,2.65
2022-09-28T07:46:22.353Z,1.98
2022-09-28T07:49:02.470Z,2.63
2022-09-28T07:51:57.757Z,2.33
2022-09-28T07:54:32.309Z,2.83
2022-09-28T07:57:41.214Z,3.20
2022-09-28T08:00:25.141Z,2.67
2022-09-28T08:02:55.854Z,2.47
2022-09-28T08:05:27.292Z,1.95
2022-09-28T08:07:59.926Z,2.50
2022-09-28T08:10:31.254Z,2.15
2022-09-28T08:13:23.465Z,2.42
2022-09-28T08:16:14.257Z,2.40
2022-09-28T08:18:55.765Z,2.33
2022-09-28T08:21:44.162Z,2.50
2022-09-28T08:24:16.617Z,2.30
2022-09-28T08:26:48.264Z,2.70
2022-09-28T08:29:20.122Z,2.15
2022-09-28T08:31:52.936Z,2.40
2022-09-28T08:34:43.188Z,2.50
2022-09-28T08:37:26.175Z,2.50
2022-09-28T08:40:15.084Z,2.30
2022-09-28T08:43:01.726Z,2.15
2022-09-28T08:45:50.164Z,2.47
2022-09-28T08:49:20.980Z,1.80
2022-09-28T08:52:20.236Z,1.83
2022-09-28T08:55:28.330Z,1.98
2022-09-28T08:58:38.143Z,2.10
2022-09-28T09:01:12.840Z,2.25
2022-09-28T09:03:43.742Z,2.22
2022-09-28T09:06:35.498Z,1.92
2022-09-28T09:09:41.396Z,2.20
2022-09-28T09:12:41.297Z,1.73
2022-09-28T09:15:29.573Z,1.80
2022-09-28T09:18:31.499Z,1.80
2022-09-28T09:21:20.527Z,2.10
2022-09-28T09:23:50.417Z,1.85
2022-09-28T09:26:25.969Z,2.42
2022-09-28T09:29:08.017Z,2.28
2022-09-28T09:32:04.198Z,2.53
2022-09-28T09:35:07.999Z,3.45
2022-09-28T09:38:12.580Z,2.30
2022-09-28T09:41:33.755Z,2.35
2022-09-28T09:44:47.214Z,2.67
2022-09-28T09:47:48.332Z,2.42
2022-09-28T09:51:03.679Z,2.90
2022-09-28T09:53:37.668Z,2.50
2022-09-28T09:56:25.276Z,2.00
2022-09-28T09:59:16.727Z,2.00
2022-09-28T10:02:33.073Z,2.33
2022-09-28T10:05:13.158Z,2.08
2022-09-28T10:07:56.172Z,2.33
2022-09-28T10:10:32.892Z,2.08
2022-09-28T10:13:11.320Z,1.63
2022-09-28T10:15:43.611Z,1.67
2022-09-28T10:21:25.080Z,1.80
2022-09-28T10:24:06.062Z,2.15
2022-09-28T10:26:49.664Z,1.85
2022-09-28T10:29:27.975Z,1.70
2022-09-28T10:31:59.208Z,2.47
2022-09-28T10:34:36.672Z,1.27
2022-09-28T10:37:15.417Z,2.80
2022-09-28T10:40:05.020Z,1.70
2022-09-28T10:42:37.571Z,2.05
2022-09-28T10:45:22.037Z,1.38
2022-09-28T10:47:52.323Z,1.60
2022-09-28T10:50:28.497Z,2.95
2022-09-28T10:53:27.481Z,1.20
2022-09-28T10:56:28.361Z,1.70
2022-09-28T10:59:25.001Z,1.60
2022-09-28T11:02:14.587Z,1.10
2022-09-28T11:04:46.196Z,0.90
2022-09-28T11:07:21.737Z,1.40
2022-09-28T11:09:53.986Z,1.70
2022-09-28T11:12:30.624Z,0.95
2022-09-28T11:15:04.616Z,1.35
2022-09-28T11:17:41.058Z,1.20
2022-09-28T11:20:27.060Z,1.10
2022-09-28T11:23:22.008Z,1.20
2022-09-28T11:26:07.095Z,1.40
2022-09-28T11:28:43.369Z,1.15
2022-09-28T11:31:30.427Z,1.02
2022-09-28T11:34:31.435Z,0.98
2022-09-28T11:38:11.485Z,1.60
2022-09-28T11:41:10.534Z,1.40
2022-09-28T11:43:55.315Z,1.17
2022-09-28T11:46:53.517Z,1.05
2022-09-28T11:49:33.299Z,1.52
2022-09-28T11:52:12.958Z,1.20
2022-09-28T11:54:49.638Z,1.00
2022-09-28T11:57:29.169Z,0.90
2022-09-28T12:00:15.046Z,1.08
2022-09-28T12:02:59.933Z,1.23
2022-09-28T12:05:35.463Z,0.98
2022-09-28T12:11:23.982Z,0.88
2022-09-28T12:14:23.149Z,1.10
2022-09-28T12:17:06.971Z,1.05
2022-09-28T12:19:52.362Z,0.60
2022-09-28T12:22:55.486Z,1.30
2022-09-28T12:25:27.215Z,1.35
2022-09-28T12:28:03.960Z,1.40
2022-09-28T12:30:41.705Z,1.10
2022-09-28T12:33:18.809Z,1.42
2022-09-28T12:36:03.856Z,1.10
2022-09-28T12:39:23.969Z,1.45
2022-09-28T12:41:57.582Z,0.90
2022-09-28T12:44:45.757Z,1.00
2022-09-28T12:47:44.098Z,1.10
2022-09-28T12:50:41.064Z,1.15
2022-09-28T12:53:42.507Z,1.17
2022-09-28T12:56:33.493Z,1.30
2022-09-28T12:59:33.466Z,1.10
2022-09-28T13:02:24.188Z,1.00
2022-09-28T13:05:08.926Z,1.35
2022-09-28T13:07:58.812Z,1.30
2022-09-28T13:10:43.935Z,2.08
2022-09-28T13:13:16.496Z,3.03
2022-09-28T13:16:24.475Z,3.13
2022-09-28T13:19:05.327Z,2.38
2022-09-28T13:21:54.168Z,0.95
2022-09-28T13:24:34.111Z,1.27
2022-09-28T13:27:17.570Z,1.35
2022-09-28T13:29:51.455Z,1.40
2022-09-28T13:32:21.927Z,0.90
2022-09-28T13:34:52.134Z,1.55
2022-09-28T13:37:27.862Z,1.27
2022-09-28T13:40:07.138Z,1.27
2022-09-28T13:42:41.367Z,1.23
2022-09-28T13:45:22.576Z,1.00
2022-09-28T13:48:01.463Z,1.15
2022-09-28T13:50:52.055Z,0.70
2022-09-28T13:53:52.487Z,1.17
2022-09-28T13:56:59.087Z,1.55
2022-09-28T13:59:31.744Z,1.60
2022-09-28T14:02:34.983Z,1.20
2022-09-28T14:05:28.407Z,1.60
2022-09-28T14:08:10.352Z,1.83
2022-09-28T14:10:59.300Z,1.10
2022-09-28T14:13:44.594Z,0.90
2022-09-28T14:16:21.709Z,1.00
2022-09-28T14:19:21.955Z,0.95
2022-09-28T14:22:25.828Z,1.95
2022-09-28T14:25:22.916Z,1.27
2022-09-28T14:28:10.758Z,1.30
2022-09-28T14:30:43.855Z,1.10
2022-09-28T14:33:18.939Z,1.02
2022-09-28T14:36:03.127Z,1.00
2022-09-28T14:39:06.541Z,1.15
2022-09-28T14:41:43.043Z,1.23
2022-09-28T14:44:20.282Z,1.38
2022-09-28T14:46:50.315Z,0.90
2022-09-28T14:49:24.326Z,0.82
2022-09-28T14:51:59.944Z,1.10
2022-09-28T14:54:53.014Z,1.10
2022-09-28T14:57:29.706Z,1.25
2022-09-28T15:00:01.097Z,1.02
2022-09-28T15:02:39.530Z,0.65
2022-09-28T15:05:25.420Z,0.90
2022-09-28T15:07:56.337Z,0.70
2022-09-28T15:10:33.950Z,1.00
2022-09-28T15:13:07.246Z,1.33
2022-09-28T15:15:44.309Z,0.85
2022-09-28T15:18:43.960Z,2.20
2022-09-28T15:21:15.044Z,0.98
2022-09-28T15:23:46.509Z,1.80
2022-09-28T15:26:28.744Z,1.38
2022-09-28T15:28:59.733Z,1.00
2022-09-28T15:31:32.509Z,0.90
2022-09-28T15:34:20.697Z,1.35
2022-09-28T15:36:51.113Z,1.20
2022-09-28T15:39:35.183Z,1.10
2022-09-28T15:42:07.208Z,1.45
2022-09-28T15:44:39.272Z,1.27
2022-09-28T15:47:17.852Z,1.30
2022-09-28T15:50:28.216Z,1.63
2022-09-28T15:53:01.125Z,1.00
2022-09-28T15:55:34.602Z,1.40
2022-09-28T15:58:16.846Z,1.10
2022-09-28T16:00:49.210Z,1.40
2022-09-28T16:03:19.353Z,1.17
2022-09-28T16:06:10.275Z,1.52
2022-09-28T16:08:45.999Z,1.10
2022-09-28T16:14:08.384Z,1.20
2022-09-28T16:16:48.983Z,1.48
2022-09-28T16:19:34.055Z,1.15
2022-09-28T16:22:09.664Z,1.00
2022-09-28T16:24:43.144Z,0.90
2022-09-28T16:27:42.038Z,1.30
2022-09-28T16:30:18.456Z,1.02
2022-09-28T16:33:04.468Z,0.95
2022-09-28T16:35:52.136Z,0.80
2022-09-28T16:38:22.563Z,1.08
2022-09-28T16:40:59.004Z,0.93
2022-09-28T16:43:32.034Z,0.98
2022-09-28T16:46:10.334Z,1.00
2022-09-28T16:48:49.638Z,0.90
2022-09-28T16:51:21.609Z,1.02
2022-09-28T16:54:09.911Z,0.80
2022-09-28T16:56:40.036Z,1.10
2022-09-28T16:59:13.846Z,0.82
2022-09-28T17:01:44.813Z,0.85
2022-09-28T17:04:14.566Z,0.63
2022-09-28T17:06:44.721Z,0.90
2022-09-28T17:09:14.496Z,0.73
2022-09-28T17:11:44.537Z,0.82
2022-09-28T17:14:15.097Z,1.08
2022-09-28T17:17:07.460Z,1.05
2022-09-28T17:19:37.405Z,1.00
2022-09-28T17:22:09.074Z,0.95
2022-09-28T17:24:39.513Z,1.02
2022-09-28T17:27:13.606Z,0.90
2022-09-28T17:29:43.664Z,1.08
2022-09-28T17:32:20.389Z,0.90
2022-09-28T17:35:00.722Z,1.15
2022-09-28T17:37:37.347Z,0.90
2022-09-28T17:40:33.663Z,1.20
2022-09-28T17:43:06.803Z,0.70
2022-09-28T17:45:42.119Z,0.70
2022-09-28T17:50:49.405Z,0.95
2022-09-28T17:53:19.777Z,0.98
2022-09-28T17:55:49.459Z,0.90
2022-09-28T17:58:22.202Z,0.80
2022-09-28T18:00:53.739Z,0.80
2022-09-28T18:03:25.503Z,1.00
2022-09-28T18:06:10.429Z,1.15
2022-09-28T18:08:40.752Z,0.82
2022-09-28T18:11:10.925Z,0.60
2022-09-28T18:13:40.843Z,0.90
2022-09-28T18:16:11.731Z,1.00
2022-09-28T18:18:42.152Z,0.93
2022-09-28T18:21:11.937Z,0.60
2022-09-28T18:23:41.749Z,0.95
2022-09-28T18:26:15.831Z,0.82
2022-09-28T18:28:45.839Z,1.20
2022-09-28T18:31:17.421Z,1.00
2022-09-28T18:36:37.279Z,0.60
2022-09-28T18:39:07.453Z,0.80
2022-09-28T18:41:37.333Z,0.88
2022-09-28T18:44:07.050Z,1.20
2022-09-28T18:46:37.636Z,1.17
2022-09-28T18:49:07.503Z,0.55
2022-09-28T18:51:37.284Z,0.80
2022-09-28T18:54:08.416Z,0.80
2022-09-28T18:56:39.180Z,1.08
2022-09-28T18:59:21.005Z,0.90
2022-09-28T19:01:51.190Z,0.73
2022-09-28T19:04:21.673Z,0.73
2022-09-28T19:06:53.393Z,0.90
2022-09-28T19:09:25.884Z,1.25
2022-09-28T19:11:56.008Z,1.00
2022-09-28T19:14:26.237Z,0.80
2022-09-28T19:16:56.443Z,1.00
2022-09-28T19:19:26.177Z,1.13
2022-09-28T19:21:55.907Z,1.63
2022-09-28T19:24:26.745Z,1.20
2022-09-28T19:26:56.461Z,1.13
2022-09-28T19:29:26.209Z,0.60
2022-09-28T19:31:57.834Z,1.25
2022-09-28T19:34:31.044Z,1.20
2022-09-28T19:37:05.069Z,1.98
2022-09-28T19:39:35.735Z,1.48
2022-09-28T19:42:05.563Z,1.05
2022-09-28T19:44:36.820Z,1.42
2022-09-28T19:47:11.121Z,1.38
2022-09-28T19:49:42.740Z,1.63
2022-09-28T19:52:17.745Z,1.23
2022-09-28T19:54:55.427Z,1.30
2022-09-28T19:57:28.792Z,1.55
2022-09-28T20:00:02.481Z,0.90
2022-09-28T20:02:37.028Z,1.00
2022-09-28T20:05:07.372Z,1.55
2022-09-28T20:07:37.916Z,1.63
2022-09-28T20:10:08.263Z,1.27
2022-09-28T20:12:38.254Z,1.88
2022-09-28T20:15:10.258Z,1.33
2022-09-28T20:17:40.433Z,1.30
2022-09-28T20:20:10.359Z,1.10
2022-09-28T20:22:40.024Z,1.20
2022-09-28T20:25:11.093Z,1.27
2022-09-28T20:27:41.171Z,1.13
2022-09-28T20:30:12.330Z,1.30
2022-09-28T20:32:45.058Z,1.50
2022-09-28T20:35:30.435Z,1.33
2022-09-28T20:38:10.185Z,1.15
2022-09-28T20:40:42.426Z,1.23
2022-09-28T20:43:12.517Z,1.30
2022-09-28T20:45:42.329Z,1.58
2022-09-28T20:48:11.997Z,1.15
2022-09-28T20:50:43.754Z,1.40
2022-09-28T20:53:13.819Z,1.08
2022-09-28T20:55:43.479Z,1.42
2022-09-28T20:58:13.130Z,1.33
2022-09-28T21:00:43.036Z,1.27
2022-09-28T21:05:42.863Z,1.75
2022-09-28T21:08:12.858Z,1.52
2022-09-28T21:10:45.672Z,2.20
2022-09-28T21:13:15.862Z,1.90
2022-09-28T21:15:45.640Z,1.67
2022-09-28T21:18:15.572Z,1.70
2022-09-28T21:20:52.733Z,1.58
2022-09-28T21:23:24.884Z,1.13
2022-09-28T21:26:13.584Z,1.63
2022-09-28T21:28:45.829Z,1.67
2022-09-28T21:31:16.121Z,1.17
2022-09-28T21:33:45.880Z,1.77
2022-09-28T21:36:15.935Z,1.65
2022-09-28T21:38:45.856Z,0.98
2022-09-28T21:41:15.962Z,1.30
2022-09-28T21:43:47.116Z,1.35
2022-09-28T21:46:18.583Z,1.33
2022-09-28T21:48:52.501Z,2.53
2022-09-28T21:51:22.957Z,1.25
2022-09-28T21:53:52.689Z,1.20
2022-09-28T21:56:24.149Z,1.45
2022-09-28T21:58:54.885Z,1.63
2022-09-28T22:01:27.150Z,1.45
2022-09-28T22:03:58.472Z,1.63
2022-09-28T22:06:31.993Z,1.10
2022-09-28T22:09:02.604Z,1.45
2022-09-28T22:11:32.283Z,1.00
2022-09-28T22:16:32.895Z,1.08
2022-09-28T22:19:03.167Z,0.82
2022-09-28T22:21:35.981Z,1.48
2022-09-28T22:24:08.555Z,1.65
2022-09-28T22:26:40.599Z,1.75
2022-09-28T22:29:11.086Z,1.20
2022-09-28T22:31:42.381Z,1.20
2022-09-28T22:34:12.547Z,1.33
2022-09-28T22:36:42.269Z,1.38
2022-09-28T22:39:12.240Z,1.30
2022-09-28T22:41:43.825Z,1.42
2022-09-28T22:44:14.062Z,1.40
2022-09-28T22:46:45.102Z,0.98
2022-09-28T22:49:15.558Z,1.25
2022-09-28T22:51:45.410Z,1.23
2022-09-28T22:54:18.314Z,1.42
2022-09-28T22:56:48.539Z,1.25
2022-09-28T23:01:49.011Z,1.17
2022-09-28T23:04:18.869Z,1.17
2022-09-28T23:06:48.711Z,2.08
2022-09-28T23:11:47.916Z,2.17
2022-09-28T23:14:17.876Z,1.13
2022-09-28T23:19:16.775Z,1.02
2022-09-28T23:21:47.874Z,1.13
2022-09-28T23:24:18.338Z,1.23
2022-09-28T23:26:48.388Z,0.80
2022-09-28T23:29:20.252Z,1.00
2022-09-28T23:31:50.595Z,1.02
2022-09-28T23:34:21.206Z,0.77
2022-09-28T23:36:53.973Z,1.88
2022-09-28T23:39:23.825Z,1.48
2022-09-28T23:41:53.907Z,0.80
2022-09-28T23:44:23.716Z,1.40
2022-09-28T23:49:22.961Z,1.10
2022-09-28T23:51:52.797Z,1.30
2022-09-28T23:54:22.512Z,1.15
2022-09-28T23:59:21.472Z,0.95
